Data for 03/17/2006

Time Sea-Level Adjusted Pressure Absolute Pressure Temperature Relative Humidity Dew Point   
(mb) (inHg) (mb) (inHg) (C) (F) (%) (C) (F)
00:05 1016 30 845 24.95 -2 28.5 60 -8.7 16.3
00:10 1016 30 845 24.95 -1.9 28.6 59 -8.9 15.9
00:15 1016 30 845 24.95 -1.7 29 58 -9 15.9
00:20 1016 30 845 24.95 -1.6 29.2 57 -8.9 16
00:25 1016 30 845 24.95 -1.8 28.7 59 -8.8 16.2
00:30 1016 30 845 24.95 -1.9 28.5 59 -8.9 16
00:35 1016 30 845 24.95 -1.7 28.9 58 -8.9 16
00:40 1016 30 845 24.95 -1.9 28.6 59 -8.9 16
00:45 1016 30 845 24.95 -2.3 27.8 60 -9.2 15.5
00:50 1016 30 845 24.95 -2.3 27.8 59 -9.3 15.3
00:55 1016 30 845 24.95 -2.3 27.8 60 -9.2 15.5
01:00 1016 30 845 24.95 -2.6 27.3 61 -9.2 15.5
01:05 1016 30 845 24.95 -2.6 27.3 60 -9.3 15.3
01:10 1016 30 845 24.95 -2.4 27.6 60 -9.1 15.6
01:15 1016 30 845 24.95 -2.5 27.4 62 -8.9 15.9
01:20 1016 30 845 24.95 -2.6 27.4 62 -8.8 16.1
01:25 1016 30 845 24.95 -2.5 27.4 62 -8.9 16
01:30 1016 30 845 24.95 -2.2 28 61 -8.7 16.3
01:35 1016 30 845 24.95 -2 28.4 60 -8.7 16.3
01:40 1016 30 845 24.95 -2.1 28.2 61 -8.7 16.3
01:45 1016 30 845 24.95 -2.3 27.9 61 -8.9 16.1
01:50 1016 30 845 24.95 -2.1 28.3 60 -8.7 16.3
01:55 1016 30 845 24.95 -2.1 28.1 61 -8.7 16.4
02:00 1016 30 845 24.95 -2.2 28 61 -8.7 16.3
02:05 1016 30 845 24.95 -1.8 28.8 60 -8.6 16.4
02:10 1016 30 845 24.95 -1.7 28.9 60 -8.6 16.6
02:15 1016 30 845 24.95 -1.9 28.6 60 -8.7 16.4
02:20 1016 30 845 24.95 -1.9 28.6 60 -8.6 16.5
02:25 1015 29.97 845 24.95 -1.9 28.5 60 -8.6 16.5
02:30 1015 29.97 845 24.95 -2 28.5 60 -8.7 16.3
02:35 1015 29.97 845 24.95 -2 28.4 60 -8.7 16.3
02:40 1015 29.97 845 24.95 -2.1 28.2 60 -8.8 16.1
02:45 1015 29.97 845 24.95 -1.9 28.5 59 -8.9 15.9
02:50 1015 29.97 845 24.95 -1.9 28.6 59 -8.8 16.1
02:55 1015 29.97 845 24.95 -1.8 28.7 59 -8.9 16
03:00 1015 29.97 844 24.92 -1.8 28.8 59 -8.7 16.4
03:05 1015 29.97 844 24.92 -1.8 28.7 59 -8.9 16
03:10 1015 29.97 844 24.92 -1.9 28.6 59 -8.8 16.1
03:15 1015 29.97 844 24.92 -1.9 28.6 58 -9 15.8
03:20 1015 29.97 844 24.92 -1.8 28.7 59 -8.8 16.2
03:25 1015 29.97 844 24.92 -2 28.3 60 -8.8 16.1
03:30 1015 29.97 844 24.92 -2.1 28.1 60 -9 15.8
03:35 1015 29.97 844 24.92 -2 28.4 59 -9 15.9
03:40 1015 29.97 844 24.92 -2.1 28.2 60 -8.9 16
03:45 1015 29.97 844 24.92 -1.9 28.5 59 -8.9 15.9
03:50 1015 29.97 844 24.92 -1.9 28.6 59 -8.8 16.1
03:55 1015 29.97 844 24.92 -1.8 28.7 59 -8.7 16.3
04:00 1015 29.97 844 24.92 -1.8 28.7 60 -8.7 16.3
04:05 1015 29.97 844 24.92 -1.9 28.6 60 -8.6 16.4
04:10 1015 29.97 844 24.92 -2 28.4 60 -8.8 16.2
04:15 1015 29.97 844 24.92 -2 28.4 60 -8.8 16.2
04:20 1015 29.97 844 24.92 -1.9 28.6 60 -8.6 16.5
04:25 1015 29.97 844 24.92 -2 28.3 62 -8.5 16.8
04:30 1015 29.97 844 24.92 -2 28.4 61 -8.5 16.7
04:35 1015 29.97 844 24.92 -2 28.4 61 -8.6 16.5
04:40 1015 29.97 844 24.92 -2 28.4 61 -8.6 16.5
04:45 1015 29.97 844 24.92 -1.9 28.5 61 -8.4 16.8
04:50 1015 29.97 844 24.92 -1.9 28.6 61 -8.4 16.9
04:55 1015 29.97 844 24.92 -1.9 28.6 61 -8.5 16.7
05:00 1015 29.97 844 24.92 -1.9 28.7 60 -8.6 16.5
05:05 1015 29.97 844 24.92 -1.7 29 60 -8.4 16.9
05:10 1015 29.97 844 24.92 -1.7 29 61 -8.2 17.2
05:15 1015 29.97 844 24.92 -1.8 28.8 61 -8.3 17
05:20 1015 29.97 844 24.92 -1.9 28.5 62 -8.2 17.2
05:25 1015 29.97 844 24.92 -2 28.4 63 -8.2 17.2
05:30 1015 29.97 844 24.92 -2.3 27.9 64 -8.2 17.2
05:35 1015 29.97 844 24.92 -2.4 27.6 65 -8.2 17.3
05:40 1015 29.97 844 24.92 -2.4 27.7 64 -8.2 17.2
05:45 1014 29.94 844 24.92 -2.4 27.8 65 -8.1 17.5
05:50 1014 29.94 844 24.92 -2.4 27.7 65 -8.1 17.4
05:55 1014 29.94 844 24.92 -2.3 27.8 64 -8.2 17.3
06:00 1014 29.94 844 24.92 -2.1 28.2 63 -8.2 17.2
06:05 1014 29.94 844 24.92 -2 28.4 62 -8.2 17.2
06:10 1014 29.94 844 24.92 -2 28.3 63 -8.1 17.4
06:15 1014 29.94 844 24.92 -2.2 28.1 64 -8.2 17.3
06:20 1014 29.94 844 24.92 -2.1 28.2 63 -8.2 17.2
06:25 1014 29.94 844 24.92 -2 28.4 63 -8.1 17.5
06:30 1014 29.94 844 24.92 -2 28.5 62 -8.3 17.1
06:35 1014 29.94 844 24.92 -2.3 27.9 64 -8.1 17.4
06:40 1014 29.94 844 24.92 -2.1 28.3 63 -8.1 17.4
06:45 1014 29.94 844 24.92 -1.9 28.5 63 -8.1 17.4
06:50 1014 29.94 844 24.92 -2 28.4 63 -8.1 17.4
06:55 1014 29.94 844 24.92 -1.9 28.5 64 -7.9 17.7
07:00 1014 29.94 844 24.92 -1.7 28.9 62 -8 17.5
07:05 1014 29.94 844 24.92 -1.5 29.4 61 -8 17.7
07:10 1014 29.94 844 24.92 -1.5 29.3 62 -7.9 17.8
07:15 1015 29.97 844 24.92 -1.6 29.2 62 -7.8 17.9
07:20 1015 29.97 844 24.92 -1.2 29.9 60 -7.9 17.8
07:25 1015 29.97 844 24.92 -1.3 29.7 61 -8 17.7
07:30 1015 29.97 844 24.92 -1.3 29.6 62 -7.8 18
07:35 1015 29.97 844 24.92 -1.1 30 61 -7.8 18
07:40 1015 29.97 844 24.92 -1.1 30 60 -7.8 17.9
07:45 1015 29.97 844 24.92 -0.9 30.4 60 -7.8 18
07:50 1015 29.97 844 24.92 -0.7 30.8 59 -7.7 18.2
07:55 1015 29.97 844 24.92 -0.6 30.9 60 -7.5 18.5
08:00 1015 29.97 844 24.92 -0.4 31.3 59 -7.5 18.5
08:05 1015 29.97 844 24.92 -0.1 31.8 59 -7.1 19.1
08:10 1015 29.97 844 24.92 -0.3 31.5 60 -7.1 19.3
08:15 1015 29.97 844 24.92 -0.1 31.7 59 -7.3 18.9
08:20 1015 29.97 844 24.92 0.2 32.3 58 -7.1 19.2
08:25 1015 29.97 844 24.92 0.5 32.9 57 -7.1 19.3
08:30 1015 29.97 844 24.92 0.8 33.4 57 -6.9 19.7
08:35 1015 29.97 844 24.92 1.2 34.2 55 -6.9 19.6
08:40 1015 29.97 844 24.92 1.6 34.9 52 -7.1 19.3
08:45 1015 29.97 844 24.92 1.9 35.4 52 -6.8 19.7
08:50 1015 29.97 844 24.92 2.2 35.9 52 -6.7 19.9
08:55 1015 29.97 844 24.92 2.6 36.7 51 -6.6 20.1
09:00 1015 29.97 844 24.92 2.9 37.2 49 -6.7 19.9
09:05 1015 29.97 844 24.92 3 37.5 50 -6.3 20.7
09:10 1014 29.94 844 24.92 3.4 38.2 48 -6.5 20.4
09:15 1014 29.94 844 24.92 3.6 38.4 47 -6.7 19.9
09:20 1014 29.94 844 24.92 4 39.2 47 -6.4 20.5
09:25 1014 29.94 844 24.92 3.8 38.9 48 -6.3 20.7
09:30 1014 29.94 844 24.92 4.1 39.4 46 -6.6 20.1
09:35 1014 29.94 844 24.92 4.7 40.5 45 -6.3 20.7
09:40 1014 29.94 844 24.92 5 41 44 -6.3 20.6
09:45 1014 29.94 843 24.89 5.1 41.2 45 -5.9 21.3
09:50 1014 29.94 843 24.89 4.8 40.7 43 -6.6 20
09:55 1014 29.94 843 24.89 4.5 40.1 44 -6.7 20
10:00 1014 29.94 843 24.89 5.3 41.6 43 -6.3 20.6
10:05 1014 29.94 843 24.89 5.9 42.6 40 -6.5 20.2
10:10 1014 29.94 843 24.89 6 42.8 42 -5.9 21.5
10:15 1014 29.94 843 24.89 6.6 43.8 39 -6.4 20.5
10:20 1014 29.94 843 24.89 7.7 45.8 34 -7.1 19.2
10:25 1014 29.94 843 24.89 7.2 44.9 40 -5.6 22
10:30 1014 29.94 843 24.89 7.3 45.2 37 -6.4 20.4
10:35 1014 29.94 843 24.89 8.1 46.7 34 -6.9 19.6
10:40 1014 29.94 843 24.89 8.1 46.5 35 -6.4 20.4
10:45 1014 29.94 843 24.89 8.8 47.8 35 -5.7 21.7
10:50 1014 29.94 843 24.89 8.4 47.1 35 -6.1 20.9
10:55 1014 29.94 843 24.89 8 46.5 37 -5.9 21.4
11:00 1014 29.94 843 24.89 8.8 47.9 35 -5.9 21.5
11:05 1014 29.94 843 24.89 8.8 47.9 38 -4.6 23.8
11:10 1014 29.94 843 24.89 9.4 48.8 32 -6.4 20.5
11:15 1014 29.94 843 24.89 9.1 48.4 35 -5.5 22
11:20 1014 29.94 843 24.89 9 48.2 38 -4.4 24.1
11:25 1013 29.91 843 24.89 8.2 46.7 36 -6 21.2
11:30 1013 29.91 843 24.89 7.7 45.9 38 -5.8 21.5
11:35 1013 29.91 843 24.89 8.1 46.6 34 -6.8 19.8
11:40 1013 29.91 842 24.86 8.1 46.6 34 -6.7 20
11:45 1013 29.91 842 24.86 8.4 47.1 34 -6.6 20.1
11:50 1013 29.91 842 24.86 7.9 46.3 33 -7.4 18.6
11:55 1013 29.91 842 24.86 9.1 48.3 30 -7.5 18.5
12:00 1013 29.91 842 24.86 9.5 49.1 31 -6.9 19.7
12:05 1013 29.91 842 24.86 9.4 48.9 29 -7.6 18.4
12:10 1013 29.91 842 24.86 9.6 49.3 32 -6.3 20.7
12:15 1013 29.91 842 24.86 9.3 48.7 31 -7.2 19.1
12:20 1013 29.91 842 24.86 8.7 47.6 29 -8.1 17.3
12:25 1013 29.91 842 24.86 9.4 48.9 29 -7.8 17.9
12:30 1013 29.91 842 24.86 9.9 49.8 30 -6.8 19.7
12:35 1013 29.91 842 24.86 10.8 51.5 29 -6.3 20.7
12:40 1013 29.91 842 24.86 10.3 50.6 28 -7.3 18.9
12:45 1013 29.91 842 24.86 10.1 50.1 29 -6.9 19.5
12:50 1013 29.91 842 24.86 9 48.2 29 -8.1 17.4
12:55 1013 29.91 842 24.86 9.4 48.9 30 -7.2 19.1
13:00 1012 29.88 842 24.86 9.8 49.6 32 -6.2 20.8
13:05 1012 29.88 842 24.86 10.2 50.4 28 -7.3 18.9
13:10 1012 29.88 842 24.86 10.7 51.2 27 -7.6 18.4
13:15 1012 29.88 841 24.83 10.2 50.3 28 -7.5 18.5
13:20 1012 29.88 841 24.83 10.8 51.5 27 -7.4 18.7
13:25 1012 29.88 841 24.83 10.7 51.2 28 -7.2 19.1
13:30 1012 29.88 841 24.83 9.9 49.7 29 -7.4 18.7
13:35 1012 29.88 841 24.83 9.6 49.3 28 -7.9 17.8
13:40 1012 29.88 841 24.83 9.7 49.5 28 -7.8 17.9
13:45 1012 29.88 841 24.83 9.9 49.9 27 -8.2 17.3
13:50 1012 29.88 841 24.83 10.4 50.7 29 -6.7 20
13:55 1012 29.88 841 24.83 11 51.8 26 -7.6 18.3
14:00 1012 29.88 841 24.83 10.4 50.7 29 -7 19.4
14:05 1012 29.88 841 24.83 10.8 51.4 27 -7.3 18.9
14:10 1012 29.88 841 24.83 11.1 52 27 -7 19.5
14:15 1012 29.88 841 24.83 11.4 52.5 27 -6.8 19.8
14:20 1012 29.88 841 24.83 11 51.8 28 -6.6 20.1
14:25 1012 29.88 841 24.83 10.9 51.6 29 -6.2 20.9
14:30 1012 29.88 841 24.83 11.6 52.8 28 -6.2 20.9
14:35 1012 29.88 841 24.83 11.2 52.2 28 -6.5 20.3
14:40 1012 29.88 841 24.83 11.5 52.8 26 -7.2 19
14:45 1012 29.88 841 24.83 11.6 52.9 26 -7.1 19.2
14:50 1011 29.85 841 24.83 10.5 50.8 29 -6.6 20.1
14:55 1011 29.85 841 24.83 9.5 49.2 31 -6.8 19.8
15:00 1012 29.88 841 24.83 10.3 50.6 30 -6.6 20.1
15:05 1011 29.85 841 24.83 9.2 48.6 31 -7 19.4
15:10 1011 29.85 841 24.83 9.3 48.8 31 -6.8 19.7
15:15 1011 29.85 841 24.83 9.8 49.6 30 -7.2 19.1
15:20 1011 29.85 841 24.83 10 50.1 30 -6.6 20
15:25 1011 29.85 841 24.83 9.4 49 32 -6.3 20.7
15:30 1011 29.85 841 24.83 10.3 50.6 29 -6.8 19.7
15:35 1011 29.85 841 24.83 10.5 51 29 -6.6 20.2
15:40 1011 29.85 841 24.83 10.2 50.3 31 -6.3 20.7
15:45 1011 29.85 841 24.83 9.9 49.8 31 -6.5 20.3
15:50 1011 29.85 841 24.83 9.1 48.4 33 -6.2 20.8
15:55 1011 29.85 840 24.81 8.3 47 33 -6.9 19.6
16:00 1011 29.85 840 24.81 8.2 46.7 34 -6.9 19.6
16:05 1011 29.85 841 24.83 8.4 47.1 33 -6.9 19.6
16:10 1011 29.85 841 24.83 8 46.4 34 -6.8 19.7
16:15 1011 29.85 840 24.81 8.3 46.9 34 -6.6 20.1
16:20 1011 29.85 840 24.81 8.4 47.2 34 -6.4 20.5
16:25 1011 29.85 840 24.81 8.6 47.6 35 -5.8 21.5
16:30 1011 29.85 840 24.81 8.4 47.1 36 -5.7 21.8
16:35 1011 29.85 840 24.81 8 46.3 36 -6.2 20.9
16:40 1011 29.85 840 24.81 8 46.3 36 -6.2 20.8
16:45 1011 29.85 840 24.81 8.1 46.5 38 -5.5 22
16:50 1011 29.85 840 24.81 7.7 45.9 41 -4.6 23.8
16:55 1011 29.85 840 24.81 7.8 46 42 -4.5 24
17:00 1011 29.85 840 24.81 7.7 45.9 42 -4.2 24.4
17:05 1011 29.85 840 24.81 7.9 46.1 42 -4.3 24.2
17:10 1011 29.85 840 24.81 7.9 46.3 42 -4.2 24.5
17:15 1011 29.85 840 24.81 7.7 45.9 44 -3.8 25.1
17:20 1011 29.85 840 24.81 7.6 45.7 44 -3.9 25
17:25 1011 29.85 840 24.81 7.5 45.4 45 -3.8 25.2
17:30 1011 29.85 840 24.81 7.5 45.4 44 -4.1 24.6
17:35 1011 29.85 840 24.81 7.3 45.2 45 -3.8 25.1
17:40 1011 29.85 840 24.81 7 44.6 47 -3.5 25.8
17:45 1011 29.85 840 24.81 6.7 44.1 49 -3.2 26.3
17:50 1011 29.85 840 24.81 6.5 43.7 50 -3.1 26.4
17:55 1011 29.85 840 24.81 6.5 43.8 50 -3.1 26.4
18:00 1011 29.85 840 24.81 6.5 43.6 49 -3.5 25.6
18:05 1011 29.85 840 24.81 6.4 43.5 50 -3.3 26.1
18:10 1011 29.85 840 24.81 6.3 43.4 50 -3.3 26.1
18:15 1011 29.85 840 24.81 6.1 43.1 51 -3.3 26
18:20 1011 29.85 840 24.81 6.1 42.9 51 -3.2 26.2
18:25 1011 29.85 840 24.81 6 42.8 51 -3.3 26
18:30 1011 29.85 840 24.81 5.9 42.6 52 -3.2 26.3
18:35 1011 29.85 840 24.81 5.8 42.4 53 -3.1 26.4
18:40 1011 29.85 840 24.81 5.8 42.4 51 -3.5 25.7
18:45 1011 29.85 840 24.81 5.7 42.2 53 -3.2 26.2
18:50 1011 29.85 840 24.81 5.5 41.8 53 -3.4 25.9
18:55 1011 29.85 840 24.81 5.4 41.8 53 -3.3 26
19:00 1011 29.85 840 24.81 5.4 41.7 54 -3.2 26.3
19:05 1011 29.85 840 24.81 5.2 41.3 55 -3.2 26.3
19:10 1011 29.85 840 24.81 4.9 40.9 56 -3.2 26.3
19:15 1011 29.85 840 24.81 4.8 40.6 56 -3.3 26.1
19:20 1011 29.85 840 24.81 4.7 40.5 55 -3.5 25.7
19:25 1011 29.85 840 24.81 4.6 40.3 56 -3.4 25.8
19:30 1011 29.85 840 24.81 4.4 40 56 -3.5 25.6
19:35 1011 29.85 840 24.81 4.4 39.9 56 -3.6 25.6
19:40 1011 29.85 840 24.81 4.3 39.8 56 -3.6 25.6
19:45 1011 29.85 840 24.81 4 39.2 58 -3.6 25.6
19:50 1011 29.85 840 24.81 3.9 39.1 56 -3.9 24.9
19:55 1011 29.85 840 24.81 4 39.2 57 -3.9 25
20:00 1011 29.85 840 24.81 4.1 39.3 55 -4.1 24.6
20:05 1011 29.85 840 24.81 4.3 39.8 54 -4.1 24.7
20:10 1011 29.85 840 24.81 4.1 39.4 56 -3.8 25.2
20:15 1011 29.85 840 24.81 4 39.1 55 -4.2 24.5
20:20 1011 29.85 840 24.81 4 39.1 56 -4 24.9
20:25 1011 29.85 840 24.81 3.8 38.8 57 -3.9 25
20:30 1011 29.85 840 24.81 3.5 38.3 58 -3.9 25
20:35 1011 29.85 840 24.81 3.5 38.3 57 -4.3 24.3
20:40 1011 29.85 840 24.81 3.5 38.3 57 -4.3 24.3
20:45 1011 29.85 840 24.81 3.5 38.4 56 -4.5 23.8
20:50 1011 29.85 840 24.81 3.5 38.2 57 -4.3 24.3
20:55 1011 29.85 840 24.81 3.3 37.9 57 -4.5 24
21:00 1011 29.85 840 24.81 3.1 37.6 59 -4.2 24.5
21:05 1011 29.85 840 24.81 3 37.3 58 -4.5 23.9
21:10 1011 29.85 840 24.81 2.8 37.1 59 -4.3 24.3
21:15 1011 29.85 840 24.81 2.6 36.8 59 -4.5 23.9
21:20 1011 29.85 840 24.81 2.4 36.3 60 -4.5 23.8
21:25 1011 29.85 840 24.81 2.1 35.8 62 -4.4 24.1
21:30 1011 29.85 840 24.81 1.9 35.4 63 -4.5 24
21:35 1011 29.85 840 24.81 1.8 35.2 63 -4.6 23.8
21:40 1011 29.85 840 24.81 1.9 35.3 62 -4.6 23.7
21:45 1011 29.85 840 24.81 2 35.6 62 -4.6 23.7
21:50 1011 29.85 840 24.81 2 35.6 61 -4.8 23.4
21:55 1011 29.85 840 24.81 2.1 35.7 61 -4.7 23.6
22:00 1011 29.85 840 24.81 1.9 35.4 62 -4.7 23.5
22:05 1011 29.85 840 24.81 1.8 35.2 62 -4.8 23.3
22:10 1011 29.85 840 24.81 1.8 35.3 61 -5 23
22:15 1011 29.85 840 24.81 2.1 35.8 59 -5.2 22.7
22:20 1011 29.85 840 24.81 2.2 35.9 58 -5.3 22.4
22:25 1011 29.85 840 24.81 2.2 36 57 -5.4 22.3
22:30 1011 29.85 840 24.81 2.1 35.7 57 -5.5 22
22:35 1011 29.85 840 24.81 1.9 35.5 58 -5.6 22
22:40 1011 29.85 840 24.81 1.9 35.3 59 -5.4 22.3
22:45 1011 29.85 840 24.81 1.9 35.3 58 -5.7 21.8
22:50 1011 29.85 840 24.81 1.9 35.4 58 -5.6 22
22:55 1011 29.85 840 24.81 1.9 35.5 57 -5.7 21.8
23:00 1011 29.85 840 24.81 1.7 35.1 61 -4.9 23.1
23:05 1011 29.85 840 24.81 1.1 34 62 -5.3 22.4
23:10 1011 29.85 840 24.81 0.8 33.5 63 -5.5 22.1
23:15 1011 29.85 840 24.81 0.7 33.3 62 -5.8 21.6
23:20 1011 29.85 840 24.81 0.7 33.2 63 -5.6 21.9
23:25 1011 29.85 840 24.81 0.5 32.9 63 -5.7 21.7
23:30 1011 29.85 840 24.81 0.4 32.8 63 -5.9 21.4
23:35 1011 29.85 840 24.81 0.5 32.9 62 -6 21.2
23:40 1011 29.85 840 24.81 0.6 33 61 -6.1 21.1
23:45 1011 29.85 840 24.81 0.5 32.8 63 -5.7 21.8
23:50 1011 29.85 840 24.81 0.2 32.4 63 -6 21.1
23:55 1011 29.85 840 24.81 0.1 32.1 63 -6.1 21
24:00 1011 29.85 840 24.81 0.2 32.3 63 -6.1 20.9